createdAt,value
2023-03-05T00:01:19.057Z,31.15
2023-03-05T00:03:46.788Z,32.65
2023-03-05T00:06:13.654Z,32.17
2023-03-05T00:08:40.786Z,31.67
2023-03-05T00:11:10.429Z,30.55
2023-03-05T00:13:38.293Z,29.50
2023-03-05T00:16:09.276Z,30.58
2023-03-05T00:18:36.735Z,30.60
2023-03-05T00:21:03.966Z,30.27
2023-03-05T00:23:31.105Z,29.80
2023-03-05T00:26:02.605Z,28.65
2023-03-05T00:28:29.452Z,31.13
2023-03-05T00:31:01.094Z,31.80
2023-03-05T00:33:28.459Z,29.20
2023-03-05T00:35:55.249Z,31.00
2023-03-05T00:38:22.089Z,31.08
2023-03-05T00:40:51.071Z,29.77
2023-03-05T00:43:17.813Z,30.75
2023-03-05T00:45:44.846Z,29.85
2023-03-05T00:48:12.488Z,32.03
2023-03-05T00:50:39.392Z,32.05
2023-03-05T00:53:06.260Z,30.63
2023-03-05T00:55:33.155Z,30.77
2023-03-05T00:57:59.936Z,32.60
2023-03-05T01:00:26.817Z,29.52
2023-03-05T01:02:53.613Z,32.53
2023-03-05T01:05:20.777Z,33.38
2023-03-05T01:07:47.851Z,33.97
2023-03-05T01:10:14.676Z,32.42
2023-03-05T01:12:41.527Z,33.80
2023-03-05T01:15:08.813Z,32.25
2023-03-05T01:17:35.620Z,31.40
2023-03-05T01:20:03.003Z,31.85
2023-03-05T01:22:30.034Z,29.75
2023-03-05T01:24:56.994Z,30.85
2023-03-05T01:27:24.196Z,31.30
2023-03-05T01:29:51.212Z,30.92
2023-03-05T01:32:18.259Z,31.00
2023-03-05T01:34:45.350Z,30.08
2023-03-05T01:37:12.116Z,29.38
2023-03-05T01:39:39.789Z,29.38
2023-03-05T01:42:06.766Z,32.15
2023-03-05T01:44:34.672Z,28.15
2023-03-05T01:47:02.666Z,31.85
2023-03-05T01:49:38.865Z,31.10
2023-03-05T01:52:18.186Z,30.33
2023-03-05T01:54:50.028Z,31.05
2023-03-05T01:57:23.095Z,28.48
2023-03-05T01:59:55.724Z,30.15
2023-03-05T02:02:22.999Z,30.48
2023-03-05T02:04:59.294Z,29.77
2023-03-05T02:07:26.987Z,29.55
2023-03-05T02:09:53.726Z,30.10
2023-03-05T02:12:21.132Z,27.52
2023-03-05T02:14:51.271Z,26.88
2023-03-05T02:17:18.278Z,27.33
2023-03-05T02:19:51.909Z,27.75
2023-03-05T02:22:21.465Z,27.75
2023-03-05T02:24:48.465Z,26.15
2023-03-05T02:27:15.903Z,27.60
2023-03-05T02:29:46.591Z,26.90
2023-03-05T02:32:14.047Z,28.63
2023-03-05T02:34:41.287Z,25.85
2023-03-05T02:37:10.297Z,27.40
2023-03-05T02:39:39.781Z,26.83
2023-03-05T02:42:07.192Z,25.35
2023-03-05T02:44:36.085Z,27.52
2023-03-05T02:47:03.110Z,28.17
2023-03-05T02:49:31.258Z,27.52
2023-03-05T02:51:58.216Z,27.48
2023-03-05T02:54:25.374Z,26.48
2023-03-05T02:56:52.321Z,27.90
2023-03-05T02:59:19.222Z,28.27
2023-03-05T03:01:46.679Z,27.73
2023-03-05T03:04:13.589Z,27.85
2023-03-05T03:06:40.458Z,27.70
2023-03-05T03:09:07.256Z,28.08
2023-03-05T03:11:34.121Z,27.27
2023-03-05T03:14:00.953Z,28.30
2023-03-05T03:16:27.877Z,27.73
2023-03-05T03:18:54.796Z,27.73
2023-03-05T03:21:24.737Z,28.38
2023-03-05T03:23:51.621Z,27.92
2023-03-05T03:26:18.943Z,27.70
2023-03-05T03:28:49.188Z,27.08
2023-03-05T03:31:16.772Z,28.08
2023-03-05T03:33:44.409Z,27.70
2023-03-05T03:36:11.349Z,26.25
2023-03-05T03:38:38.510Z,29.10
2023-03-05T03:41:09.400Z,30.50
2023-03-05T03:43:36.882Z,30.48
2023-03-05T03:46:06.247Z,29.88
2023-03-05T03:48:33.658Z,31.67
2023-03-05T03:51:04.488Z,31.77
2023-03-05T03:53:31.346Z,31.77
2023-03-05T03:55:59.487Z,29.85
2023-03-05T03:58:26.861Z,32.58
2023-03-05T04:00:53.788Z,31.13
2023-03-05T04:03:20.670Z,29.27
2023-03-05T04:05:47.641Z,31.20
2023-03-05T04:08:14.541Z,30.52
2023-03-05T04:10:41.520Z,30.73
2023-03-05T04:13:08.464Z,30.63
2023-03-05T04:15:35.651Z,29.77
2023-03-05T04:18:02.748Z,31.17
2023-03-05T04:20:29.647Z,31.40
2023-03-05T04:22:56.530Z,30.48
2023-03-05T04:25:23.685Z,29.77
2023-03-05T04:27:51.231Z,29.80
2023-03-05T04:30:18.200Z,29.50
2023-03-05T04:32:45.168Z,28.88
2023-03-05T04:35:12.418Z,30.10
2023-03-05T04:37:39.262Z,26.33
2023-03-05T04:40:06.729Z,27.80
2023-03-05T04:42:33.898Z,27.98
2023-03-05T04:45:00.640Z,29.63
2023-03-05T04:47:27.546Z,28.23
2023-03-05T04:49:54.273Z,27.00
2023-03-05T04:52:21.102Z,29.73
2023-03-05T04:54:47.852Z,28.02
2023-03-05T04:57:14.779Z,28.40
2023-03-05T04:59:41.617Z,28.48
2023-03-05T05:02:08.405Z,25.80
2023-03-05T05:04:36.206Z,29.20
2023-03-05T05:07:03.830Z,26.88
2023-03-05T05:09:31.004Z,27.73
2023-03-05T05:11:57.901Z,28.25
2023-03-05T05:14:24.887Z,25.45
2023-03-05T05:16:54.416Z,27.38
2023-03-05T05:19:21.420Z,25.75
2023-03-05T05:21:48.714Z,26.73
2023-03-05T05:24:15.675Z,28.20
2023-03-05T05:26:42.392Z,26.45
2023-03-05T05:29:09.452Z,26.70
2023-03-05T05:31:36.310Z,26.52
2023-03-05T05:34:03.792Z,26.50
2023-03-05T05:36:30.861Z,26.38
2023-03-05T05:38:57.726Z,24.58
2023-03-05T05:41:24.572Z,25.38
2023-03-05T05:43:51.822Z,23.88
2023-03-05T05:46:20.559Z,23.45
2023-03-05T05:48:48.093Z,25.80
2023-03-05T05:51:22.889Z,24.13
2023-03-05T05:53:50.194Z,24.63
2023-03-05T05:56:18.183Z,23.30
2023-03-05T05:58:47.470Z,23.55
2023-03-05T06:01:32.938Z,24.90
2023-03-05T06:04:00.378Z,25.33
2023-03-05T06:06:28.329Z,24.17
2023-03-05T06:08:55.686Z,25.30
2023-03-05T06:11:23.422Z,26.00
2023-03-05T06:13:51.147Z,22.70
2023-03-05T06:16:20.970Z,23.95
2023-03-05T06:18:48.301Z,22.95
2023-03-05T06:21:18.422Z,24.20
2023-03-05T06:23:46.600Z,28.02
2023-03-05T06:26:16.908Z,24.48
2023-03-05T06:28:43.842Z,26.15
2023-03-05T06:31:17.525Z,26.80
2023-03-05T06:33:44.932Z,25.75
2023-03-05T06:36:14.588Z,25.95
2023-03-05T06:38:42.618Z,24.50
2023-03-05T06:41:15.688Z,26.80
2023-03-05T06:43:45.195Z,26.55
2023-03-05T06:46:25.169Z,27.40
2023-03-05T06:48:57.983Z,26.00
2023-03-05T06:51:28.525Z,27.02
2023-03-05T06:53:59.943Z,28.58
2023-03-05T06:56:27.037Z,26.83
2023-03-05T06:58:54.094Z,25.10
2023-03-05T07:01:21.509Z,25.33
2023-03-05T07:03:52.766Z,27.30
2023-03-05T07:06:19.956Z,27.60
2023-03-05T07:08:47.049Z,26.52
2023-03-05T07:11:16.814Z,25.98
2023-03-05T07:13:43.997Z,26.75
2023-03-05T07:16:15.621Z,26.80
2023-03-05T07:18:42.678Z,25.02
2023-03-05T07:21:13.523Z,27.63
2023-03-05T07:23:40.445Z,26.83
2023-03-05T07:26:07.547Z,27.40
2023-03-05T07:28:34.956Z,24.77
2023-03-05T07:31:04.907Z,28.00
2023-03-05T07:33:32.281Z,26.17
2023-03-05T07:35:59.362Z,26.48
2023-03-05T07:38:26.131Z,26.45
2023-03-05T07:40:53.322Z,25.33
2023-03-05T07:43:20.180Z,26.38
2023-03-05T07:45:47.110Z,24.65
2023-03-05T07:48:16.869Z,25.40
2023-03-05T07:50:44.233Z,26.65
2023-03-05T07:53:11.565Z,25.30
2023-03-05T07:55:45.626Z,23.98
2023-03-05T07:58:14.531Z,22.83
2023-03-05T08:00:41.494Z,24.80
2023-03-05T08:03:08.454Z,23.23
2023-03-05T08:05:38.524Z,22.52
2023-03-05T08:08:05.630Z,22.00
2023-03-05T08:10:33.310Z,24.02
2023-03-05T08:13:00.312Z,21.08
2023-03-05T08:15:27.506Z,20.70
2023-03-05T08:17:54.664Z,22.63
2023-03-05T08:20:21.517Z,22.67
2023-03-05T08:22:48.341Z,23.95
2023-03-05T08:25:15.217Z,21.25
2023-03-05T08:27:43.812Z,27.90
2023-03-05T08:30:22.618Z,28.98
2023-03-05T08:32:50.341Z,25.48
2023-03-05T08:35:17.210Z,25.70
2023-03-05T08:37:44.397Z,23.50
2023-03-05T08:40:12.402Z,23.50
2023-03-05T08:42:39.227Z,21.75
2023-03-05T08:45:06.778Z,19.60
2023-03-05T08:47:34.054Z,20.38
2023-03-05T08:50:01.408Z,20.75
2023-03-05T08:52:28.317Z,22.20
2023-03-05T08:54:55.258Z,21.58
2023-03-05T08:57:22.100Z,20.40
2023-03-05T08:59:48.973Z,19.20
2023-03-05T09:02:15.789Z,19.10
2023-03-05T09:04:42.543Z,19.58
2023-03-05T09:07:09.394Z,18.25
2023-03-05T09:09:36.944Z,22.13
2023-03-05T09:12:04.111Z,19.52
2023-03-05T09:14:30.946Z,18.63
2023-03-05T09:16:58.578Z,19.48
2023-03-05T09:19:25.817Z,18.08
2023-03-05T09:21:54.045Z,18.30
2023-03-05T09:24:25.155Z,16.85
2023-03-05T09:26:51.980Z,16.23
2023-03-05T09:29:18.768Z,15.57
2023-03-05T09:31:45.609Z,14.60
2023-03-05T09:34:12.610Z,15.90
2023-03-05T09:36:39.449Z,14.90
2023-03-05T09:39:07.039Z,15.23
2023-03-05T09:42:00.965Z,15.40
2023-03-05T09:45:03.963Z,16.58
2023-03-05T09:48:01.845Z,17.60
2023-03-05T09:50:33.760Z,17.90
2023-03-05T09:53:28.322Z,17.73
2023-03-05T09:55:58.871Z,18.25
2023-03-05T09:58:32.983Z,16.85
2023-03-05T10:01:14.015Z,16.70
2023-03-05T10:04:01.901Z,18.95
2023-03-05T10:06:37.555Z,18.30
2023-03-05T10:09:10.654Z,17.60
2023-03-05T10:11:56.475Z,18.00
2023-03-05T10:14:34.113Z,16.30
2023-03-05T10:17:19.808Z,18.00
2023-03-05T10:20:27.687Z,16.65
2023-03-05T10:23:29.558Z,16.67
2023-03-05T10:26:14.900Z,17.75
2023-03-05T10:29:03.789Z,16.33
2023-03-05T10:31:48.275Z,17.65
2023-03-05T10:34:27.941Z,16.77
2023-03-05T10:37:08.844Z,16.40
2023-03-05T10:39:44.586Z,16.33
2023-03-05T10:42:42.427Z,17.20
2023-03-05T10:45:14.728Z,14.60
2023-03-05T10:48:15.919Z,15.93
2023-03-05T10:50:50.751Z,15.05
2023-03-05T10:53:31.659Z,13.90
2023-03-05T10:56:02.425Z,16.02
2023-03-05T10:58:29.604Z,16.17
2023-03-05T11:00:59.803Z,14.45
2023-03-05T11:03:45.372Z,15.60
2023-03-05T11:06:13.276Z,15.27
2023-03-05T11:08:41.399Z,14.75
2023-03-05T11:11:14.249Z,17.40
2023-03-05T11:13:57.955Z,14.98
2023-03-05T11:16:26.773Z,15.15
2023-03-05T11:19:21.657Z,14.48
2023-03-05T11:22:15.121Z,14.25
2023-03-05T11:24:42.208Z,15.50
2023-03-05T11:27:38.181Z,13.20
2023-03-05T11:30:36.403Z,11.68
2023-03-05T11:33:19.338Z,12.10
2023-03-05T11:35:47.371Z,10.73
2023-03-05T11:38:26.610Z,9.52
2023-03-05T11:40:56.237Z,9.85
2023-03-05T11:43:25.655Z,10.80
2023-03-05T11:46:02.318Z,10.52
2023-03-05T11:48:35.303Z,10.10
2023-03-05T11:51:07.262Z,11.52
2023-03-05T11:53:37.166Z,11.32
2023-03-05T11:56:21.561Z,10.07
2023-03-05T11:59:01.824Z,8.05
2023-03-05T12:01:33.371Z,8.18
2023-03-05T12:04:01.045Z,7.93
2023-03-05T12:06:48.343Z,7.88
2023-03-05T12:09:50.650Z,8.68
2023-03-05T12:12:30.887Z,7.25
2023-03-05T12:15:12.827Z,6.50
2023-03-05T12:18:07.390Z,6.40
2023-03-05T12:21:01.962Z,5.75
2023-03-05T12:23:28.840Z,6.13
2023-03-05T12:25:59.298Z,6.60
2023-03-05T12:28:32.210Z,6.43
2023-03-05T12:31:00.777Z,8.00
2023-03-05T12:33:39.832Z,6.28
2023-03-05T12:36:21.851Z,6.10
2023-03-05T12:38:56.356Z,10.20
2023-03-05T12:41:23.189Z,6.47
2023-03-05T12:44:05.057Z,6.05
2023-03-05T12:46:43.239Z,6.22
2023-03-05T12:49:20.750Z,6.43
2023-03-05T12:51:49.916Z,6.47
2023-03-05T12:54:35.734Z,7.20
2023-03-05T12:57:06.668Z,6.60
2023-03-05T12:59:45.006Z,6.65
2023-03-05T13:02:26.759Z,6.60
2023-03-05T13:04:59.419Z,5.85
2023-03-05T13:07:26.345Z,7.15
2023-03-05T13:09:59.062Z,6.60
2023-03-05T13:12:28.898Z,5.90
2023-03-05T13:15:03.077Z,6.03
2023-03-05T13:17:40.662Z,6.00
2023-03-05T13:20:31.817Z,5.70
2023-03-05T13:23:24.846Z,5.95
2023-03-05T13:26:12.847Z,5.43
2023-03-05T13:28:40.036Z,6.00
2023-03-05T13:31:19.183Z,6.45
2023-03-05T13:33:54.236Z,5.60
2023-03-05T13:36:24.275Z,6.32
2023-03-05T13:38:52.443Z,6.13
2023-03-05T13:41:28.243Z,6.00
2023-03-05T13:44:00.158Z,6.03
2023-03-05T13:46:36.182Z,7.00
2023-03-05T13:49:32.991Z,6.75
2023-03-05T13:52:00.226Z,6.18
2023-03-05T13:54:28.267Z,5.68
2023-03-05T13:56:59.333Z,8.32
2023-03-05T13:59:30.745Z,6.40
2023-03-05T14:01:59.655Z,5.78
2023-03-05T14:04:30.076Z,5.93
2023-03-05T14:07:02.298Z,5.63
2023-03-05T14:09:29.171Z,6.00
2023-03-05T14:12:04.938Z,5.75
2023-03-05T14:14:37.595Z,6.28
2023-03-05T14:17:30.625Z,6.22
2023-03-05T14:20:23.431Z,6.10
2023-03-05T14:23:01.423Z,5.55
2023-03-05T14:25:42.108Z,5.95
2023-03-05T14:28:18.467Z,5.85
2023-03-05T14:30:47.540Z,7.15
2023-03-05T14:33:15.426Z,5.15
2023-03-05T14:35:49.052Z,5.50
2023-03-05T14:38:23.454Z,5.75
2023-03-05T14:40:50.717Z,6.05
2023-03-05T14:43:17.670Z,5.93
2023-03-05T14:45:45.076Z,6.00
2023-03-05T14:48:15.119Z,6.32
2023-03-05T14:50:56.456Z,6.68
2023-03-05T14:53:27.163Z,6.15
2023-03-05T14:55:56.811Z,6.25
2023-03-05T14:58:32.239Z,5.97
2023-03-05T15:00:59.795Z,5.95
2023-03-05T15:03:28.186Z,6.45
2023-03-05T15:05:57.725Z,5.80
2023-03-05T15:08:28.849Z,6.30
2023-03-05T15:10:55.994Z,7.10
2023-03-05T15:13:23.021Z,9.07
2023-03-05T15:15:51.355Z,7.15
2023-03-05T15:18:19.988Z,6.78
2023-03-05T15:20:48.901Z,7.47
2023-03-05T15:23:16.085Z,6.60
2023-03-05T15:25:43.067Z,7.13
2023-03-05T15:28:10.115Z,7.10
2023-03-05T15:30:40.510Z,6.78
2023-03-05T15:33:10.573Z,7.38
2023-03-05T15:35:37.884Z,8.57
2023-03-05T15:38:05.048Z,8.60
2023-03-05T15:40:32.942Z,8.73
2023-03-05T15:43:01.199Z,8.63
2023-03-05T15:45:31.323Z,7.60
2023-03-05T15:47:58.690Z,7.47
2023-03-05T15:50:25.637Z,6.95
2023-03-05T15:52:52.608Z,8.48
2023-03-05T15:55:20.205Z,7.38
2023-03-05T15:57:49.441Z,7.25
2023-03-05T16:00:22.623Z,7.35
2023-03-05T16:02:50.973Z,7.60
2023-03-05T16:05:18.580Z,7.80
2023-03-05T16:07:48.688Z,8.38
2023-03-05T16:10:21.583Z,8.82
2023-03-05T16:12:53.696Z,9.40
2023-03-05T16:15:21.853Z,8.70
2023-03-05T16:17:53.304Z,9.18
2023-03-05T16:20:20.568Z,8.25
2023-03-05T16:22:47.445Z,8.85
2023-03-05T16:25:14.491Z,8.63
2023-03-05T16:27:41.289Z,8.00
2023-03-05T16:30:08.837Z,7.50
2023-03-05T16:32:37.999Z,7.70
2023-03-05T16:35:05.550Z,8.73
2023-03-05T16:37:32.548Z,8.10
2023-03-05T16:39:59.603Z,7.30
2023-03-05T16:42:26.652Z,8.23
2023-03-05T16:44:54.111Z,8.73
2023-03-05T16:47:21.130Z,7.90
2023-03-05T16:49:48.029Z,7.93
2023-03-05T16:52:19.598Z,8.25
2023-03-05T16:54:47.994Z,7.38
2023-03-05T16:57:15.482Z,8.20
2023-03-05T16:59:43.606Z,8.70
2023-03-05T17:02:13.561Z,8.32
2023-03-05T17:04:40.584Z,7.97
2023-03-05T17:07:07.692Z,7.50
2023-03-05T17:09:35.091Z,8.00
2023-03-05T17:12:02.174Z,7.95
2023-03-05T17:14:29.442Z,7.40
2023-03-05T17:16:56.404Z,8.00
2023-03-05T17:19:23.554Z,8.27
2023-03-05T17:21:52.319Z,8.65
2023-03-05T17:24:21.493Z,8.45
2023-03-05T17:26:50.036Z,8.15
2023-03-05T17:29:18.923Z,8.80
2023-03-05T17:31:46.741Z,8.15
2023-03-05T17:34:14.414Z,8.50
2023-03-05T17:36:41.253Z,7.20
2023-03-05T17:39:08.869Z,8.35
2023-03-05T17:41:35.788Z,8.70
2023-03-05T17:44:02.705Z,8.13
2023-03-05T17:46:29.691Z,8.68
2023-03-05T17:48:56.683Z,7.82
2023-03-05T17:51:23.585Z,9.32
2023-03-05T17:53:50.397Z,9.50
2023-03-05T17:56:17.537Z,8.63
2023-03-05T17:58:44.306Z,8.02
2023-03-05T18:01:11.468Z,8.35
2023-03-05T18:03:39.439Z,8.82
2023-03-05T18:06:06.456Z,9.48
2023-03-05T18:08:33.662Z,9.65
2023-03-05T18:11:00.458Z,8.38
2023-03-05T18:13:27.355Z,8.23
2023-03-05T18:15:57.337Z,9.02
2023-03-05T18:18:24.076Z,9.40
2023-03-05T18:20:50.827Z,8.30
2023-03-05T18:23:17.709Z,8.68
2023-03-05T18:25:44.619Z,9.25
2023-03-05T18:28:13.254Z,9.13
2023-03-05T18:30:41.833Z,9.93
2023-03-05T18:33:15.508Z,10.50
2023-03-05T18:35:42.357Z,9.18
2023-03-05T18:38:09.255Z,9.35
2023-03-05T18:40:36.544Z,9.63
2023-03-05T18:43:03.894Z,12.02
2023-03-05T18:45:32.316Z,16.42
2023-03-05T18:47:59.108Z,18.38
2023-03-05T18:50:27.566Z,16.30
2023-03-05T18:52:54.478Z,15.65
2023-03-05T18:55:25.693Z,14.82
2023-03-05T18:57:53.166Z,11.00
2023-03-05T19:00:25.910Z,10.80
2023-03-05T19:02:53.354Z,9.18
2023-03-05T19:05:21.233Z,9.13
2023-03-05T19:07:48.686Z,10.18
2023-03-05T19:10:17.620Z,10.32
2023-03-05T19:13:05.636Z,12.35
2023-03-05T19:15:32.969Z,11.65
2023-03-05T19:17:59.836Z,10.95
2023-03-05T19:20:26.730Z,10.45
2023-03-05T19:22:55.697Z,9.00
2023-03-05T19:25:22.719Z,8.60
2023-03-05T19:27:49.946Z,8.73
2023-03-05T19:30:17.466Z,8.90
2023-03-05T19:32:47.125Z,8.43
2023-03-05T19:35:16.154Z,8.88
2023-03-05T19:37:45.877Z,7.53
2023-03-05T19:40:14.043Z,8.95
2023-03-05T19:42:41.368Z,8.82
2023-03-05T19:45:08.932Z,7.97
2023-03-05T19:47:35.764Z,7.97
2023-03-05T19:50:02.989Z,8.20
2023-03-05T19:52:29.849Z,7.78
2023-03-05T19:54:56.709Z,7.65
2023-03-05T19:57:23.521Z,7.43
2023-03-05T19:59:53.669Z,7.90
2023-03-05T20:02:21.938Z,8.07
2023-03-05T20:04:49.573Z,8.98
2023-03-05T20:07:16.829Z,9.05
2023-03-05T20:09:43.709Z,11.30
2023-03-05T20:12:11.229Z,11.48
2023-03-05T20:14:38.201Z,9.38
2023-03-05T20:17:05.243Z,7.68
2023-03-05T20:19:32.182Z,9.55
2023-03-05T20:21:59.338Z,8.77
2023-03-05T20:24:26.147Z,8.70
2023-03-05T20:26:52.911Z,9.55
2023-03-05T20:29:19.769Z,8.40
2023-03-05T20:31:47.754Z,8.85
2023-03-05T20:34:16.801Z,9.52
2023-03-05T20:36:44.312Z,9.77
2023-03-05T20:39:11.319Z,9.68
2023-03-05T20:41:40.127Z,10.27
2023-03-05T20:44:08.110Z,11.95
2023-03-05T20:46:41.833Z,10.00
2023-03-05T20:49:09.747Z,11.35
2023-03-05T20:51:38.314Z,8.98
2023-03-05T20:54:08.864Z,9.80
2023-03-05T20:56:36.010Z,8.10
2023-03-05T20:59:04.989Z,11.00
2023-03-05T21:01:34.229Z,9.63
2023-03-05T21:04:01.616Z,9.57
2023-03-05T21:06:29.637Z,10.45
2023-03-05T21:08:57.710Z,9.98
2023-03-05T21:11:24.896Z,10.48
2023-03-05T21:13:51.826Z,11.80
2023-03-05T21:16:22.776Z,9.70
2023-03-05T21:18:50.783Z,9.70
2023-03-05T21:21:17.998Z,12.98
2023-03-05T21:23:46.124Z,11.07
2023-03-05T21:26:13.571Z,11.95
2023-03-05T21:28:41.204Z,12.60
2023-03-05T21:31:10.718Z,14.93
2023-03-05T21:33:38.062Z,11.52
2023-03-05T21:36:05.273Z,12.05
2023-03-05T21:38:34.106Z,12.15
2023-03-05T21:41:02.364Z,12.05
2023-03-05T21:43:31.130Z,13.45
2023-03-05T21:46:00.286Z,16.58
2023-03-05T21:48:27.325Z,15.93
2023-03-05T21:50:55.320Z,13.77
2023-03-05T21:53:22.889Z,11.77
2023-03-05T21:56:00.016Z,11.40
2023-03-05T21:58:26.890Z,10.43
2023-03-05T22:00:53.693Z,10.05
2023-03-05T22:03:20.546Z,10.27
2023-03-05T22:05:47.374Z,10.02
2023-03-05T22:08:14.583Z,9.68
2023-03-05T22:10:41.847Z,9.52
2023-03-05T22:13:12.802Z,10.63
2023-03-05T22:15:49.334Z,10.15
2023-03-05T22:18:21.517Z,10.40
2023-03-05T22:20:49.120Z,11.13
2023-03-05T22:23:16.905Z,10.50
2023-03-05T22:25:44.122Z,9.20
2023-03-05T22:28:12.891Z,9.65
2023-03-05T22:30:46.459Z,10.23
2023-03-05T22:33:13.844Z,10.25
2023-03-05T22:35:41.974Z,10.23
2023-03-05T22:38:09.925Z,11.23
2023-03-05T22:40:40.587Z,10.95
2023-03-05T22:43:07.476Z,10.70
2023-03-05T22:45:34.538Z,10.00
2023-03-05T22:48:01.583Z,11.25
2023-03-05T22:50:28.523Z,10.30
2023-03-05T22:52:55.861Z,11.13
2023-03-05T22:55:22.624Z,10.02
2023-03-05T22:57:49.742Z,10.35
2023-03-05T23:00:23.631Z,11.27
2023-03-05T23:02:51.820Z,11.15
2023-03-05T23:05:19.686Z,10.13
2023-03-05T23:07:46.851Z,10.48
2023-03-05T23:10:20.594Z,10.07
2023-03-05T23:12:50.657Z,9.98
2023-03-05T23:15:21.376Z,10.15
2023-03-05T23:17:48.404Z,9.90
2023-03-05T23:20:17.282Z,10.45
2023-03-05T23:22:45.240Z,9.43
2023-03-05T23:25:14.141Z,9.57
2023-03-05T23:27:41.401Z,10.65
2023-03-05T23:30:24.324Z,10.18
2023-03-05T23:32:53.848Z,11.57
2023-03-05T23:35:34.927Z,11.60
2023-03-05T23:38:03.605Z,10.85
2023-03-05T23:40:37.139Z,11.93
2023-03-05T23:43:04.736Z,11.18
2023-03-05T23:45:31.780Z,11.77
2023-03-05T23:47:58.922Z,10.45
2023-03-05T23:50:33.598Z,10.85
2023-03-05T23:53:02.146Z,11.98
2023-03-05T23:55:49.804Z,11.45
2023-03-05T23:58:17.286Z,11.27
